sensor_id;sensor_type;location;lat;lon;timestamp;P1;durP1;ratioP1;P2;durP2;ratioP2
75459;SDS011;64039;53.060;9.342;2022-11-21T00:00:44;20.88;;;10.13;;
75459;SDS011;64039;53.060;9.342;2022-11-21T00:03:11;20.85;;;10.15;;
75459;SDS011;64039;53.060;9.342;2022-11-21T00:05:38;19.92;;;9.50;;
75459;SDS011;64039;53.060;9.342;2022-11-21T00:08:05;22.63;;;10.82;;
75459;SDS011;64039;53.060;9.342;2022-11-21T00:10:32;22.00;;;11.00;;
75459;SDS011;64039;53.060;9.342;2022-11-21T00:12:57;25.23;;;11.35;;
75459;SDS011;64039;53.060;9.342;2022-11-21T00:15:24;23.17;;;11.52;;
75459;SDS011;64039;53.060;9.342;2022-11-21T00:17:50;22.50;;;11.32;;
75459;SDS011;64039;53.060;9.342;2022-11-21T00:20:16;24.20;;;11.30;;
75459;SDS011;64039;53.060;9.342;2022-11-21T00:22:44;22.75;;;11.07;;
75459;SDS011;64039;53.060;9.342;2022-11-21T00:25:09;25.13;;;11.38;;
75459;SDS011;64039;53.060;9.342;2022-11-21T00:27:35;23.42;;;11.55;;
75459;SDS011;64039;53.060;9.342;2022-11-21T00:30:01;21.17;;;10.25;;
75459;SDS011;64039;53.060;9.342;2022-11-21T00:32:26;23.48;;;11.68;;
75459;SDS011;64039;53.060;9.342;2022-11-21T00:34:52;23.48;;;10.98;;
75459;SDS011;64039;53.060;9.342;2022-11-21T00:37:17;23.65;;;10.25;;
75459;SDS011;64039;53.060;9.342;2022-11-21T00:39:43;22.38;;;10.50;;
75459;SDS011;64039;53.060;9.342;2022-11-21T00:42:08;22.55;;;10.85;;
75459;SDS011;64039;53.060;9.342;2022-11-21T00:44:33;20.13;;;9.93;;
75459;SDS011;64039;53.060;9.342;2022-11-21T00:46:59;20.20;;;9.73;;
75459;SDS011;64039;53.060;9.342;2022-11-21T00:49:24;20.13;;;9.88;;
75459;SDS011;64039;53.060;9.342;2022-11-21T00:51:50;22.27;;;11.05;;
75459;SDS011;64039;53.060;9.342;2022-11-21T00:54:15;18.70;;;9.57;;
75459;SDS011;64039;53.060;9.342;2022-11-21T00:56:41;22.48;;;10.48;;
75459;SDS011;64039;53.060;9.342;2022-11-21T00:59:06;23.50;;;11.57;;
75459;SDS011;64039;53.060;9.342;2022-11-21T01:01:32;20.58;;;10.38;;
75459;SDS011;64039;53.060;9.342;2022-11-21T01:03:57;20.02;;;10.05;;
75459;SDS011;64039;53.060;9.342;2022-11-21T01:06:23;23.10;;;10.70;;
75459;SDS011;64039;53.060;9.342;2022-11-21T01:08:48;22.67;;;10.68;;
75459;SDS011;64039;53.060;9.342;2022-11-21T01:11:15;20.38;;;10.52;;
75459;SDS011;64039;53.060;9.342;2022-11-21T01:13:42;19.90;;;10.27;;
75459;SDS011;64039;53.060;9.342;2022-11-21T01:18:35;20.17;;;10.40;;
75459;SDS011;64039;53.060;9.342;2022-11-21T01:21:02;20.77;;;10.50;;
75459;SDS011;64039;53.060;9.342;2022-11-21T01:23:29;19.20;;;9.30;;
75459;SDS011;64039;53.060;9.342;2022-11-21T01:25:54;19.70;;;10.05;;
75459;SDS011;64039;53.060;9.342;2022-11-21T01:28:25;18.23;;;10.05;;
75459;SDS011;64039;53.060;9.342;2022-11-21T01:30:50;19.58;;;9.85;;
75459;SDS011;64039;53.060;9.342;2022-11-21T01:33:16;18.55;;;9.88;;
75459;SDS011;64039;53.060;9.342;2022-11-21T01:35:42;17.88;;;8.82;;
75459;SDS011;64039;53.060;9.342;2022-11-21T01:38:08;18.98;;;9.52;;
75459;SDS011;64039;53.060;9.342;2022-11-21T01:40:39;20.13;;;9.55;;
75459;SDS011;64039;53.060;9.342;2022-11-21T01:43:12;18.53;;;8.97;;
75459;SDS011;64039;53.060;9.342;2022-11-21T01:48:18;19.70;;;10.23;;
75459;SDS011;64039;53.060;9.342;2022-11-21T01:53:43;19.42;;;9.45;;
75459;SDS011;64039;53.060;9.342;2022-11-21T01:58:41;18.42;;;9.50;;
75459;SDS011;64039;53.060;9.342;2022-11-21T02:01:08;21.05;;;10.27;;
75459;SDS011;64039;53.060;9.342;2022-11-21T02:03:35;17.80;;;8.90;;
75459;SDS011;64039;53.060;9.342;2022-11-21T02:06:02;18.67;;;9.43;;
75459;SDS011;64039;53.060;9.342;2022-11-21T02:08:30;17.20;;;8.95;;
75459;SDS011;64039;53.060;9.342;2022-11-21T02:13:33;18.10;;;9.55;;
75459;SDS011;64039;53.060;9.342;2022-11-21T02:15:59;16.63;;;9.23;;
75459;SDS011;64039;53.060;9.342;2022-11-21T02:18:24;16.58;;;9.10;;
75459;SDS011;64039;53.060;9.342;2022-11-21T02:20:51;15.07;;;8.13;;
75459;SDS011;64039;53.060;9.342;2022-11-21T02:23:29;15.32;;;8.38;;
75459;SDS011;64039;53.060;9.342;2022-11-21T02:26:01;15.30;;;7.93;;
75459;SDS011;64039;53.060;9.342;2022-11-21T02:28:27;16.80;;;8.75;;
75459;SDS011;64039;53.060;9.342;2022-11-21T02:30:53;17.13;;;8.95;;
75459;SDS011;64039;53.060;9.342;2022-11-21T02:33:19;16.17;;;8.32;;
75459;SDS011;64039;53.060;9.342;2022-11-21T02:35:53;16.25;;;8.40;;
75459;SDS011;64039;53.060;9.342;2022-11-21T02:38:35;20.88;;;9.60;;
75459;SDS011;64039;53.060;9.342;2022-11-21T02:41:11;17.98;;;9.05;;
75459;SDS011;64039;53.060;9.342;2022-11-21T02:43:43;19.15;;;9.10;;
75459;SDS011;64039;53.060;9.342;2022-11-21T02:48:40;18.02;;;8.55;;
75459;SDS011;64039;53.060;9.342;2022-11-21T02:51:06;17.20;;;8.95;;
75459;SDS011;64039;53.060;9.342;2022-11-21T02:53:31;18.38;;;8.40;;
75459;SDS011;64039;53.060;9.342;2022-11-21T02:55:57;18.25;;;9.02;;
75459;SDS011;64039;53.060;9.342;2022-11-21T02:58:22;16.77;;;8.02;;
75459;SDS011;64039;53.060;9.342;2022-11-21T03:00:47;15.73;;;8.35;;
75459;SDS011;64039;53.060;9.342;2022-11-21T03:03:13;17.77;;;8.65;;
75459;SDS011;64039;53.060;9.342;2022-11-21T03:05:38;17.10;;;8.43;;
75459;SDS011;64039;53.060;9.342;2022-11-21T03:08:05;16.30;;;8.07;;
75459;SDS011;64039;53.060;9.342;2022-11-21T03:10:31;16.48;;;8.32;;
75459;SDS011;64039;53.060;9.342;2022-11-21T03:12:57;17.13;;;8.65;;
75459;SDS011;64039;53.060;9.342;2022-11-21T03:15:30;17.02;;;8.95;;
75459;SDS011;64039;53.060;9.342;2022-11-21T03:17:58;17.67;;;8.57;;
75459;SDS011;64039;53.060;9.342;2022-11-21T03:20:28;16.48;;;8.15;;
75459;SDS011;64039;53.060;9.342;2022-11-21T03:22:58;17.60;;;8.40;;
75459;SDS011;64039;53.060;9.342;2022-11-21T03:25:24;17.63;;;8.32;;
75459;SDS011;64039;53.060;9.342;2022-11-21T03:27:53;15.48;;;8.18;;
75459;SDS011;64039;53.060;9.342;2022-11-21T03:30:19;16.67;;;8.27;;
75459;SDS011;64039;53.060;9.342;2022-11-21T03:32:45;18.30;;;8.90;;
75459;SDS011;64039;53.060;9.342;2022-11-21T03:35:11;15.70;;;8.02;;
75459;SDS011;64039;53.060;9.342;2022-11-21T03:37:36;15.57;;;8.25;;
75459;SDS011;64039;53.060;9.342;2022-11-21T03:40:02;15.60;;;8.25;;
75459;SDS011;64039;53.060;9.342;2022-11-21T03:42:28;16.02;;;8.25;;
75459;SDS011;64039;53.060;9.342;2022-11-21T03:44:54;15.57;;;8.20;;
75459;SDS011;64039;53.060;9.342;2022-11-21T03:47:19;14.48;;;7.50;;
75459;SDS011;64039;53.060;9.342;2022-11-21T03:49:45;15.77;;;7.88;;
75459;SDS011;64039;53.060;9.342;2022-11-21T03:52:10;17.63;;;8.30;;
75459;SDS011;64039;53.060;9.342;2022-11-21T03:54:36;14.18;;;7.10;;
75459;SDS011;64039;53.060;9.342;2022-11-21T03:57:01;15.70;;;8.02;;
75459;SDS011;64039;53.060;9.342;2022-11-21T03:59:27;16.77;;;8.35;;
75459;SDS011;64039;53.060;9.342;2022-11-21T04:01:52;16.25;;;8.05;;
75459;SDS011;64039;53.060;9.342;2022-11-21T04:04:18;15.07;;;8.50;;
75459;SDS011;64039;53.060;9.342;2022-11-21T04:06:43;16.40;;;8.50;;
75459;SDS011;64039;53.060;9.342;2022-11-21T04:09:09;18.60;;;8.55;;
75459;SDS011;64039;53.060;9.342;2022-11-21T04:11:34;14.30;;;7.43;;
75459;SDS011;64039;53.060;9.342;2022-11-21T04:14:00;18.48;;;8.43;;
75459;SDS011;64039;53.060;9.342;2022-11-21T04:16:25;14.35;;;7.25;;
75459;SDS011;64039;53.060;9.342;2022-11-21T04:18:51;15.75;;;7.82;;
75459;SDS011;64039;53.060;9.342;2022-11-21T04:21:16;15.70;;;8.02;;
75459;SDS011;64039;53.060;9.342;2022-11-21T04:23:41;16.58;;;8.30;;
75459;SDS011;64039;53.060;9.342;2022-11-21T04:26:07;16.70;;;8.02;;
75459;SDS011;64039;53.060;9.342;2022-11-21T04:28:32;16.63;;;8.50;;
75459;SDS011;64039;53.060;9.342;2022-11-21T04:31:02;18.45;;;8.55;;
75459;SDS011;64039;53.060;9.342;2022-11-21T04:33:31;22.25;;;9.60;;
75459;SDS011;64039;53.060;9.342;2022-11-21T04:35:57;24.90;;;12.63;;
75459;SDS011;64039;53.060;9.342;2022-11-21T04:38:22;26.08;;;12.88;;
75459;SDS011;64039;53.060;9.342;2022-11-21T04:40:48;27.05;;;14.38;;
75459;SDS011;64039;53.060;9.342;2022-11-21T04:43:13;25.52;;;12.00;;
75459;SDS011;64039;53.060;9.342;2022-11-21T04:45:39;18.95;;;8.73;;
75459;SDS011;64039;53.060;9.342;2022-11-21T04:48:04;16.60;;;7.85;;
75459;SDS011;64039;53.060;9.342;2022-11-21T04:50:30;14.88;;;7.43;;
75459;SDS011;64039;53.060;9.342;2022-11-21T04:52:56;15.73;;;7.50;;
75459;SDS011;64039;53.060;9.342;2022-11-21T04:55:23;16.95;;;8.23;;
75459;SDS011;64039;53.060;9.342;2022-11-21T04:57:51;15.63;;;8.07;;
75459;SDS011;64039;53.060;9.342;2022-11-21T05:00:17;16.83;;;8.20;;
75459;SDS011;64039;53.060;9.342;2022-11-21T05:02:43;15.15;;;7.15;;
75459;SDS011;64039;53.060;9.342;2022-11-21T05:05:09;13.25;;;7.70;;
75459;SDS011;64039;53.060;9.342;2022-11-21T05:07:35;15.05;;;7.57;;
75459;SDS011;64039;53.060;9.342;2022-11-21T05:10:01;16.20;;;7.85;;
75459;SDS011;64039;53.060;9.342;2022-11-21T05:12:27;15.02;;;8.32;;
75459;SDS011;64039;53.060;9.342;2022-11-21T05:15:11;16.85;;;7.82;;
75459;SDS011;64039;53.060;9.342;2022-11-21T05:17:36;14.25;;;7.90;;
75459;SDS011;64039;53.060;9.342;2022-11-21T05:20:02;15.32;;;7.60;;
75459;SDS011;64039;53.060;9.342;2022-11-21T05:22:29;16.02;;;7.75;;
75459;SDS011;64039;53.060;9.342;2022-11-21T05:24:55;14.65;;;7.90;;
75459;SDS011;64039;53.060;9.342;2022-11-21T05:27:20;14.63;;;7.60;;
75459;SDS011;64039;53.060;9.342;2022-11-21T05:29:46;16.35;;;8.05;;
75459;SDS011;64039;53.060;9.342;2022-11-21T05:32:11;16.02;;;8.07;;
75459;SDS011;64039;53.060;9.342;2022-11-21T05:34:36;16.40;;;8.10;;
75459;SDS011;64039;53.060;9.342;2022-11-21T05:37:02;18.25;;;7.50;;
75459;SDS011;64039;53.060;9.342;2022-11-21T05:39:28;15.75;;;7.97;;
75459;SDS011;64039;53.060;9.342;2022-11-21T05:41:53;16.15;;;8.02;;
75459;SDS011;64039;53.060;9.342;2022-11-21T05:44:19;15.65;;;7.95;;
75459;SDS011;64039;53.060;9.342;2022-11-21T05:46:44;13.88;;;7.25;;
75459;SDS011;64039;53.060;9.342;2022-11-21T05:49:10;17.70;;;8.07;;
75459;SDS011;64039;53.060;9.342;2022-11-21T05:51:36;16.80;;;8.15;;
75459;SDS011;64039;53.060;9.342;2022-11-21T05:54:02;15.35;;;7.85;;
75459;SDS011;64039;53.060;9.342;2022-11-21T05:56:28;17.55;;;7.78;;
75459;SDS011;64039;53.060;9.342;2022-11-21T05:58:54;15.45;;;7.90;;
75459;SDS011;64039;53.060;9.342;2022-11-21T06:01:21;16.65;;;7.97;;
75459;SDS011;64039;53.060;9.342;2022-11-21T06:04:06;16.98;;;7.75;;
75459;SDS011;64039;53.060;9.342;2022-11-21T06:06:32;16.40;;;8.32;;
75459;SDS011;64039;53.060;9.342;2022-11-21T06:08:58;16.63;;;8.77;;
75459;SDS011;64039;53.060;9.342;2022-11-21T06:11:25;17.95;;;8.60;;
75459;SDS011;64039;53.060;9.342;2022-11-21T06:13:51;15.77;;;8.15;;
75459;SDS011;64039;53.060;9.342;2022-11-21T06:16:17;13.80;;;7.97;;
75459;SDS011;64039;53.060;9.342;2022-11-21T06:18:45;16.35;;;8.32;;
75459;SDS011;64039;53.060;9.342;2022-11-21T06:23:46;16.65;;;8.35;;
75459;SDS011;64039;53.060;9.342;2022-11-21T06:26:14;15.43;;;7.82;;
75459;SDS011;64039;53.060;9.342;2022-11-21T06:28:42;16.17;;;8.23;;
75459;SDS011;64039;53.060;9.342;2022-11-21T06:31:09;15.23;;;7.47;;
75459;SDS011;64039;53.060;9.342;2022-11-21T06:33:39;16.17;;;7.43;;
75459;SDS011;64039;53.060;9.342;2022-11-21T06:36:06;14.35;;;7.80;;
75459;SDS011;64039;53.060;9.342;2022-11-21T06:38:36;16.65;;;7.53;;
75459;SDS011;64039;53.060;9.342;2022-11-21T06:41:03;17.35;;;7.68;;
75459;SDS011;64039;53.060;9.342;2022-11-21T06:43:29;20.08;;;8.38;;
75459;SDS011;64039;53.060;9.342;2022-11-21T06:45:55;15.23;;;7.60;;
75459;SDS011;64039;53.060;9.342;2022-11-21T06:48:21;19.50;;;8.50;;
75459;SDS011;64039;53.060;9.342;2022-11-21T06:50:46;23.15;;;9.18;;
75459;SDS011;64039;53.060;9.342;2022-11-21T06:53:12;20.52;;;9.07;;
75459;SDS011;64039;53.060;9.342;2022-11-21T06:55:37;22.10;;;8.73;;
75459;SDS011;64039;53.060;9.342;2022-11-21T06:58:03;21.67;;;8.95;;
75459;SDS011;64039;53.060;9.342;2022-11-21T07:00:28;18.23;;;8.00;;
75459;SDS011;64039;53.060;9.342;2022-11-21T07:02:54;19.08;;;8.30;;
75459;SDS011;64039;53.060;9.342;2022-11-21T07:05:24;17.27;;;7.60;;
75459;SDS011;64039;53.060;9.342;2022-11-21T07:07:49;14.95;;;7.53;;
75459;SDS011;64039;53.060;9.342;2022-11-21T07:10:14;14.77;;;7.10;;
75459;SDS011;64039;53.060;9.342;2022-11-21T07:12:40;16.30;;;8.25;;
75459;SDS011;64039;53.060;9.342;2022-11-21T07:15:24;14.55;;;6.93;;
75459;SDS011;64039;53.060;9.342;2022-11-21T07:17:49;12.68;;;6.68;;
75459;SDS011;64039;53.060;9.342;2022-11-21T07:20:16;13.07;;;6.50;;
75459;SDS011;64039;53.060;9.342;2022-11-21T07:22:42;12.30;;;6.35;;
75459;SDS011;64039;53.060;9.342;2022-11-21T07:25:07;14.65;;;7.65;;
75459;SDS011;64039;53.060;9.342;2022-11-21T07:27:33;13.70;;;7.40;;
75459;SDS011;64039;53.060;9.342;2022-11-21T07:29:59;18.33;;;9.88;;
75459;SDS011;64039;53.060;9.342;2022-11-21T07:32:24;15.93;;;8.52;;
75459;SDS011;64039;53.060;9.342;2022-11-21T07:34:50;11.73;;;6.57;;
75459;SDS011;64039;53.060;9.342;2022-11-21T07:37:15;12.80;;;6.65;;
75459;SDS011;64039;53.060;9.342;2022-11-21T07:39:41;14.63;;;7.40;;
75459;SDS011;64039;53.060;9.342;2022-11-21T07:42:06;14.70;;;8.05;;
75459;SDS011;64039;53.060;9.342;2022-11-21T07:44:32;16.83;;;8.80;;
75459;SDS011;64039;53.060;9.342;2022-11-21T07:46:57;14.43;;;7.65;;
75459;SDS011;64039;53.060;9.342;2022-11-21T07:49:23;13.23;;;6.97;;
75459;SDS011;64039;53.060;9.342;2022-11-21T07:51:48;16.15;;;7.60;;
75459;SDS011;64039;53.060;9.342;2022-11-21T07:54:14;16.30;;;8.00;;
75459;SDS011;64039;53.060;9.342;2022-11-21T07:56:39;12.63;;;7.03;;
75459;SDS011;64039;53.060;9.342;2022-11-21T07:59:05;16.92;;;8.60;;
75459;SDS011;64039;53.060;9.342;2022-11-21T08:01:30;15.00;;;7.70;;
75459;SDS011;64039;53.060;9.342;2022-11-21T08:03:56;16.48;;;8.82;;
75459;SDS011;64039;53.060;9.342;2022-11-21T08:06:21;16.00;;;8.13;;
75459;SDS011;64039;53.060;9.342;2022-11-21T08:08:50;14.50;;;7.65;;
75459;SDS011;64039;53.060;9.342;2022-11-21T08:11:16;18.67;;;8.68;;
75459;SDS011;64039;53.060;9.342;2022-11-21T08:13:42;18.63;;;8.90;;
75459;SDS011;64039;53.060;9.342;2022-11-21T08:16:07;15.90;;;8.10;;
75459;SDS011;64039;53.060;9.342;2022-11-21T08:18:33;15.85;;;7.88;;
75459;SDS011;64039;53.060;9.342;2022-11-21T08:21:01;19.95;;;9.15;;
75459;SDS011;64039;53.060;9.342;2022-11-21T08:23:28;17.55;;;8.80;;
75459;SDS011;64039;53.060;9.342;2022-11-21T08:25:54;17.83;;;8.85;;
75459;SDS011;64039;53.060;9.342;2022-11-21T08:28:19;17.27;;;8.98;;
75459;SDS011;64039;53.060;9.342;2022-11-21T08:30:45;18.88;;;9.02;;
75459;SDS011;64039;53.060;9.342;2022-11-21T08:33:10;19.38;;;10.00;;
75459;SDS011;64039;53.060;9.342;2022-11-21T08:35:36;17.92;;;8.85;;
75459;SDS011;64039;53.060;9.342;2022-11-21T08:38:06;19.77;;;9.52;;
75459;SDS011;64039;53.060;9.342;2022-11-21T08:40:32;20.77;;;10.05;;
75459;SDS011;64039;53.060;9.342;2022-11-21T08:43:00;19.95;;;9.40;;
75459;SDS011;64039;53.060;9.342;2022-11-21T08:45:27;19.30;;;9.40;;
75459;SDS011;64039;53.060;9.342;2022-11-21T08:47:53;20.67;;;9.98;;
75459;SDS011;64039;53.060;9.342;2022-11-21T08:50:19;18.02;;;9.55;;
75459;SDS011;64039;53.060;9.342;2022-11-21T08:52:44;17.35;;;9.13;;
75459;SDS011;64039;53.060;9.342;2022-11-21T08:55:10;16.48;;;8.98;;
75459;SDS011;64039;53.060;9.342;2022-11-21T08:57:36;18.58;;;9.95;;
75459;SDS011;64039;53.060;9.342;2022-11-21T09:00:05;20.35;;;10.68;;
75459;SDS011;64039;53.060;9.342;2022-11-21T09:02:33;22.35;;;10.70;;
75459;SDS011;64039;53.060;9.342;2022-11-21T09:04:58;22.23;;;10.70;;
75459;SDS011;64039;53.060;9.342;2022-11-21T09:07:24;20.75;;;10.40;;
75459;SDS011;64039;53.060;9.342;2022-11-21T09:09:49;31.83;;;14.10;;
75459;SDS011;64039;53.060;9.342;2022-11-21T09:12:15;21.77;;;11.50;;
75459;SDS011;64039;53.060;9.342;2022-11-21T09:14:40;22.10;;;10.98;;
75459;SDS011;64039;53.060;9.342;2022-11-21T09:17:24;36.45;;;17.42;;
75459;SDS011;64039;53.060;9.342;2022-11-21T09:20:09;25.55;;;12.82;;
75459;SDS011;64039;53.060;9.342;2022-11-21T09:22:35;37.80;;;17.45;;
75459;SDS011;64039;53.060;9.342;2022-11-21T09:25:00;28.45;;;13.52;;
75459;SDS011;64039;53.060;9.342;2022-11-21T09:27:26;27.63;;;13.55;;
75459;SDS011;64039;53.060;9.342;2022-11-21T09:29:51;29.25;;;12.65;;
75459;SDS011;64039;53.060;9.342;2022-11-21T09:32:17;35.35;;;15.93;;
75459;SDS011;64039;53.060;9.342;2022-11-21T09:34:42;24.55;;;11.93;;
75459;SDS011;64039;53.060;9.342;2022-11-21T09:37:07;23.95;;;11.75;;
75459;SDS011;64039;53.060;9.342;2022-11-21T09:39:33;25.05;;;12.10;;
75459;SDS011;64039;53.060;9.342;2022-11-21T09:45:05;27.05;;;14.98;;
75459;SDS011;64039;53.060;9.342;2022-11-21T09:47:44;30.30;;;13.27;;
75459;SDS011;64039;53.060;9.342;2022-11-21T09:52:39;27.23;;;12.45;;
75459;SDS011;64039;53.060;9.342;2022-11-21T09:55:25;24.58;;;11.80;;
75459;SDS011;64039;53.060;9.342;2022-11-21T09:57:55;23.33;;;11.75;;
75459;SDS011;64039;53.060;9.342;2022-11-21T10:00:24;25.48;;;12.82;;
75459;SDS011;64039;53.060;9.342;2022-11-21T10:02:50;28.52;;;13.27;;
75459;SDS011;64039;53.060;9.342;2022-11-21T10:05:16;25.00;;;12.20;;
75459;SDS011;64039;53.060;9.342;2022-11-21T10:07:49;25.70;;;12.63;;
75459;SDS011;64039;53.060;9.342;2022-11-21T10:10:25;22.02;;;11.68;;
75459;SDS011;64039;53.060;9.342;2022-11-21T10:13:20;26.27;;;12.88;;
75459;SDS011;64039;53.060;9.342;2022-11-21T10:21:00;21.10;;;11.10;;
75459;SDS011;64039;53.060;9.342;2022-11-21T10:26:50;25.08;;;12.95;;
75459;SDS011;64039;53.060;9.342;2022-11-21T10:29:26;23.83;;;12.13;;
75459;SDS011;64039;53.060;9.342;2022-11-21T10:32:25;26.08;;;13.00;;
75459;SDS011;64039;53.060;9.342;2022-11-21T10:34:56;20.77;;;11.15;;
75459;SDS011;64039;53.060;9.342;2022-11-21T10:37:30;23.83;;;12.18;;
75459;SDS011;64039;53.060;9.342;2022-11-21T10:46:07;37.88;;;19.58;;
75459;SDS011;64039;53.060;9.342;2022-11-21T10:48:33;18.80;;;9.43;;
75459;SDS011;64039;53.060;9.342;2022-11-21T10:51:02;19.63;;;11.63;;
75459;SDS011;64039;53.060;9.342;2022-11-21T10:53:32;19.05;;;10.07;;
75459;SDS011;64039;53.060;9.342;2022-11-21T10:56:32;19.38;;;9.30;;
75459;SDS011;64039;53.060;9.342;2022-11-21T10:59:00;20.35;;;10.07;;
75459;SDS011;64039;53.060;9.342;2022-11-21T11:01:37;19.55;;;9.30;;
75459;SDS011;64039;53.060;9.342;2022-11-21T11:06:34;19.25;;;8.63;;
75459;SDS011;64039;53.060;9.342;2022-11-21T11:09:04;17.77;;;8.75;;
75459;SDS011;64039;53.060;9.342;2022-11-21T11:11:31;15.05;;;7.85;;
75459;SDS011;64039;53.060;9.342;2022-11-21T11:13:58;16.42;;;8.45;;
75459;SDS011;64039;53.060;9.342;2022-11-21T11:16:27;18.02;;;9.75;;
75459;SDS011;64039;53.060;9.342;2022-11-21T11:19:04;17.90;;;8.68;;
75459;SDS011;64039;53.060;9.342;2022-11-21T11:21:41;17.48;;;9.20;;
75459;SDS011;64039;53.060;9.342;2022-11-21T11:26:34;14.55;;;7.80;;
75459;SDS011;64039;53.060;9.342;2022-11-21T11:29:25;15.98;;;8.45;;
75459;SDS011;64039;53.060;9.342;2022-11-21T11:34:23;16.88;;;8.23;;
75459;SDS011;64039;53.060;9.342;2022-11-21T11:37:04;13.55;;;7.18;;
75459;SDS011;64039;53.060;9.342;2022-11-21T11:39:34;14.75;;;7.70;;
75459;SDS011;64039;53.060;9.342;2022-11-21T11:48:08;12.18;;;6.70;;
75459;SDS011;64039;53.060;9.342;2022-11-21T11:50:38;24.48;;;11.00;;
75459;SDS011;64039;53.060;9.342;2022-11-21T11:58:15;13.10;;;7.32;;
75459;SDS011;64039;53.060;9.342;2022-11-21T12:01:29;14.45;;;7.80;;
75459;SDS011;64039;53.060;9.342;2022-11-21T12:04:12;13.95;;;6.95;;
75459;SDS011;64039;53.060;9.342;2022-11-21T12:12:37;13.73;;;6.55;;
75459;SDS011;64039;53.060;9.342;2022-11-21T12:23:49;15.45;;;7.07;;
75459;SDS011;64039;53.060;9.342;2022-11-21T12:42:27;11.05;;;5.13;;
75459;SDS011;64039;53.060;9.342;2022-11-21T12:48:05;9.73;;;5.25;;
75459;SDS011;64039;53.060;9.342;2022-11-21T12:54:08;11.70;;;6.13;;
75459;SDS011;64039;53.060;9.342;2022-11-21T13:05:31;19.58;;;10.10;;
75459;SDS011;64039;53.060;9.342;2022-11-21T13:08:14;24.95;;;11.48;;
75459;SDS011;64039;53.060;9.342;2022-11-21T13:10:45;19.60;;;9.38;;
75459;SDS011;64039;53.060;9.342;2022-11-21T13:16:08;15.52;;;7.70;;
75459;SDS011;64039;53.060;9.342;2022-11-21T13:18:44;12.40;;;7.15;;
75459;SDS011;64039;53.060;9.342;2022-11-21T13:24:09;16.10;;;7.35;;
75459;SDS011;64039;53.060;9.342;2022-11-21T13:29:10;11.38;;;6.43;;
75459;SDS011;64039;53.060;9.342;2022-11-21T13:31:37;41.42;;;28.55;;
75459;SDS011;64039;53.060;9.342;2022-11-21T13:34:08;21.40;;;12.18;;
75459;SDS011;64039;53.060;9.342;2022-11-21T13:36:58;15.73;;;7.28;;
75459;SDS011;64039;53.060;9.342;2022-11-21T13:39:25;14.55;;;7.50;;
75459;SDS011;64039;53.060;9.342;2022-11-21T13:44:39;15.55;;;8.32;;
75459;SDS011;64039;53.060;9.342;2022-11-21T13:52:23;23.25;;;10.75;;
75459;SDS011;64039;53.060;9.342;2022-11-21T14:06:31;13.88;;;7.00;;
75459;SDS011;64039;53.060;9.342;2022-11-21T14:09:21;14.30;;;7.97;;
75459;SDS011;64039;53.060;9.342;2022-11-21T14:12:00;24.02;;;14.82;;
75459;SDS011;64039;53.060;9.342;2022-11-21T14:14:28;17.02;;;10.95;;
75459;SDS011;64039;53.060;9.342;2022-11-21T14:19:46;11.23;;;6.10;;
75459;SDS011;64039;53.060;9.342;2022-11-21T14:22:14;12.30;;;6.30;;
75459;SDS011;64039;53.060;9.342;2022-11-21T14:24:50;14.57;;;6.65;;
75459;SDS011;64039;53.060;9.342;2022-11-21T14:27:21;14.10;;;7.88;;
75459;SDS011;64039;53.060;9.342;2022-11-21T14:29:52;21.88;;;9.20;;
75459;SDS011;64039;53.060;9.342;2022-11-21T14:32:24;22.23;;;10.93;;
75459;SDS011;64039;53.060;9.342;2022-11-21T14:34:51;17.15;;;8.98;;
75459;SDS011;64039;53.060;9.342;2022-11-21T14:37:16;20.25;;;9.57;;
75459;SDS011;64039;53.060;9.342;2022-11-21T14:39:42;20.02;;;10.02;;
75459;SDS011;64039;53.060;9.342;2022-11-21T14:42:12;14.73;;;7.57;;
75459;SDS011;64039;53.060;9.342;2022-11-21T14:44:40;21.83;;;9.50;;
75459;SDS011;64039;53.060;9.342;2022-11-21T14:47:16;20.90;;;9.38;;
75459;SDS011;64039;53.060;9.342;2022-11-21T14:49:49;19.58;;;8.57;;
75459;SDS011;64039;53.060;9.342;2022-11-21T14:52:26;16.33;;;7.95;;
75459;SDS011;64039;53.060;9.342;2022-11-21T14:54:56;20.33;;;9.38;;
75459;SDS011;64039;53.060;9.342;2022-11-21T14:57:25;17.92;;;9.13;;
75459;SDS011;64039;53.060;9.342;2022-11-21T14:59:57;20.42;;;10.27;;
75459;SDS011;64039;53.060;9.342;2022-11-21T15:02:24;17.10;;;8.32;;
75459;SDS011;64039;53.060;9.342;2022-11-21T15:04:51;17.77;;;8.77;;
75459;SDS011;64039;53.060;9.342;2022-11-21T15:09:44;17.65;;;8.80;;
75459;SDS011;64039;53.060;9.342;2022-11-21T15:12:10;19.30;;;9.00;;
75459;SDS011;64039;53.060;9.342;2022-11-21T15:14:41;20.27;;;9.25;;
75459;SDS011;64039;53.060;9.342;2022-11-21T15:17:11;16.93;;;8.73;;
75459;SDS011;64039;53.060;9.342;2022-11-21T15:19:40;18.38;;;9.55;;
75459;SDS011;64039;53.060;9.342;2022-11-21T15:22:14;18.90;;;9.05;;
75459;SDS011;64039;53.060;9.342;2022-11-21T15:24:47;18.83;;;9.50;;
75459;SDS011;64039;53.060;9.342;2022-11-21T15:33:04;16.92;;;8.95;;
75459;SDS011;64039;53.060;9.342;2022-11-21T15:37:59;19.55;;;9.95;;
75459;SDS011;64039;53.060;9.342;2022-11-21T15:40:25;19.42;;;9.77;;
75459;SDS011;64039;53.060;9.342;2022-11-21T15:42:51;20.83;;;10.13;;
75459;SDS011;64039;53.060;9.342;2022-11-21T15:45:24;19.73;;;10.25;;
75459;SDS011;64039;53.060;9.342;2022-11-21T15:47:50;18.73;;;9.88;;
75459;SDS011;64039;53.060;9.342;2022-11-21T15:50:16;20.20;;;10.95;;
75459;SDS011;64039;53.060;9.342;2022-11-21T15:52:45;19.52;;;10.27;;
75459;SDS011;64039;53.060;9.342;2022-11-21T15:55:16;23.73;;;11.23;;
75459;SDS011;64039;53.060;9.342;2022-11-21T15:57:44;33.53;;;15.60;;
75459;SDS011;64039;53.060;9.342;2022-11-21T16:00:10;35.63;;;16.05;;
75459;SDS011;64039;53.060;9.342;2022-11-21T16:02:36;26.95;;;12.57;;
75459;SDS011;64039;53.060;9.342;2022-11-21T16:05:01;32.88;;;15.93;;
75459;SDS011;64039;53.060;9.342;2022-11-21T16:07:27;27.75;;;14.18;;
75459;SDS011;64039;53.060;9.342;2022-11-21T16:09:52;27.42;;;14.25;;
75459;SDS011;64039;53.060;9.342;2022-11-21T16:12:20;30.25;;;12.43;;
75459;SDS011;64039;53.060;9.342;2022-11-21T16:14:45;26.65;;;13.85;;
75459;SDS011;64039;53.060;9.342;2022-11-21T16:17:11;26.98;;;13.57;;
75459;SDS011;64039;53.060;9.342;2022-11-21T16:19:36;26.30;;;12.90;;
75459;SDS011;64039;53.060;9.342;2022-11-21T16:22:02;28.15;;;13.65;;
75459;SDS011;64039;53.060;9.342;2022-11-21T16:24:27;26.73;;;13.38;;
75459;SDS011;64039;53.060;9.342;2022-11-21T16:26:53;35.85;;;16.67;;
75459;SDS011;64039;53.060;9.342;2022-11-21T16:29:19;35.28;;;15.95;;
75459;SDS011;64039;53.060;9.342;2022-11-21T16:31:45;31.23;;;13.80;;
75459;SDS011;64039;53.060;9.342;2022-11-21T16:34:10;25.85;;;12.23;;
75459;SDS011;64039;53.060;9.342;2022-11-21T16:36:36;27.77;;;14.15;;
75459;SDS011;64039;53.060;9.342;2022-11-21T16:39:01;34.13;;;15.10;;
75459;SDS011;64039;53.060;9.342;2022-11-21T16:41:27;29.73;;;14.15;;
75459;SDS011;64039;53.060;9.342;2022-11-21T16:43:53;30.02;;;13.82;;
75459;SDS011;64039;53.060;9.342;2022-11-21T16:46:20;28.92;;;13.25;;
75459;SDS011;64039;53.060;9.342;2022-11-21T16:48:47;27.70;;;13.07;;
75459;SDS011;64039;53.060;9.342;2022-11-21T16:51:21;26.10;;;12.38;;
75459;SDS011;64039;53.060;9.342;2022-11-21T16:53:47;25.80;;;11.80;;
75459;SDS011;64039;53.060;9.342;2022-11-21T16:56:13;29.05;;;13.15;;
75459;SDS011;64039;53.060;9.342;2022-11-21T16:58:39;28.27;;;12.13;;
75459;SDS011;64039;53.060;9.342;2022-11-21T17:01:09;27.15;;;14.32;;